Time;durP1;ratioP1;P1;durP2;ratioP2;P2;SDS_P1;SDS_P2;PMS_P1;PMS_P2;Temp;Humidity;BMP_temperature;BMP_pressure;BME280_temperature;BME280_humidity;BME280_pressure;Samples;Min_cycle;Max_cycle;Signal;HPM_P1;HPM_P2
2023/03/01 00:01:21;;;;;;;0.20;0.20;;;15.90;64.70;;;;;;4993433;28;20026;-67
2023/03/01 00:03:46;;;;;;;0.20;0.20;;;15.90;64.80;;;;;;4993765;28;20022;-67
2023/03/01 00:06:12;;;;;;;0.20;0.20;;;15.90;64.80;;;;;;4994954;28;20023;-67
2023/03/01 00:08:38;;;;;;;0.20;0.20;;;15.90;64.80;;;;;;4993597;28;20532;-67
2023/03/01 00:11:08;;;;;;;0.30;0.30;;;15.90;64.80;;;;;;4994949;28;20113;-67
2023/03/01 00:13:34;;;;;;;0.22;0.22;;;15.90;64.80;;;;;;4993358;28;20503;-67
2023/03/01 00:16:05;;;;;;;0.30;0.20;;;15.90;65.80;;;;;;4994479;28;20026;-67
2023/03/01 00:18:31;;;;;;;0.30;0.30;;;16.00;64.80;;;;;;4993510;28;20121;-67
2023/03/01 00:20:57;;;;;;;0.13;0.13;;;15.90;64.80;;;;;;4993130;28;20485;-67
2023/03/01 00:23:22;;;;;;;0.43;0.30;;;15.90;64.80;;;;;;4994610;28;20026;-67
2023/03/01 00:25:48;;;;;;;1.15;0.40;;;15.90;64.80;;;;;;4993447;28;20022;-68
2023/03/01 00:28:14;;;;;;;0.22;0.20;;;15.90;64.80;;;;;;4993132;28;20070;-67
2023/03/01 00:30:40;;;;;;;0.65;0.28;;;15.90;64.80;;;;;;4992989;28;20026;-67
2023/03/01 00:33:05;;;;;;;1.17;0.20;;;15.90;64.80;;;;;;4977016;28;20030;-67
2023/03/01 00:35:32;;;;;;;0.35;0.35;;;16.00;64.80;;;;;;4994366;28;20034;-67
2023/03/01 00:37:58;;;;;;;0.47;0.30;;;15.90;64.80;;;;;;4993004;28;20036;-67
2023/03/01 00:40:24;;;;;;;1.38;0.40;;;16.00;64.80;;;;;;4992996;28;20117;-67
2023/03/01 00:42:50;;;;;;;0.40;0.35;;;15.90;64.80;;;;;;4993054;28;20030;-67
2023/03/01 00:45:16;;;;;;;0.40;0.20;;;15.90;64.70;;;;;;4992860;28;20069;-67
2023/03/01 00:47:42;;;;;;;0.35;0.30;;;15.90;64.70;;;;;;4992710;28;20026;-67
2023/03/01 00:50:08;;;;;;;0.43;0.40;;;15.90;64.70;;;;;;4992819;28;20049;-67
2023/03/01 00:52:33;;;;;;;0.52;0.40;;;15.90;64.70;;;;;;4994247;28;20026;-67
2023/03/01 00:54:59;;;;;;;0.40;0.40;;;15.90;64.70;;;;;;4992922;28;20511;-67
2023/03/01 00:57:25;;;;;;;0.47;0.40;;;15.90;64.70;;;;;;4992846;28;20477;-67
2023/03/01 00:59:52;;;;;;;0.35;0.35;;;15.90;64.70;;;;;;4993615;28;20030;-68
2023/03/01 01:02:18;;;;;;;0.30;0.30;;;15.90;64.70;;;;;;4993838;28;20109;-67
2023/03/01 01:04:44;;;;;;;0.80;0.35;;;15.90;64.60;;;;;;4992510;28;20358;-67
2023/03/01 01:07:10;;;;;;;0.50;0.50;;;15.90;64.60;;;;;;4993781;28;20072;-67
2023/03/01 01:09:36;;;;;;;0.40;0.40;;;15.90;64.60;;;;;;4992315;28;20378;-67
2023/03/01 01:12:02;;;;;;;0.50;0.50;;;15.90;64.50;;;;;;4993001;28;20075;-67
2023/03/01 01:14:27;;;;;;;0.30;0.30;;;15.90;64.50;;;;;;4976085;28;20026;-67
2023/03/01 01:16:53;;;;;;;0.60;0.60;;;15.90;64.50;;;;;;4993594;28;20034;-67
2023/03/01 01:19:19;;;;;;;0.60;0.60;;;15.90;64.50;;;;;;4992339;28;20035;-67
2023/03/01 01:21:44;;;;;;;0.60;0.60;;;15.90;64.50;;;;;;4993300;28;20525;-67
2023/03/01 01:24:10;;;;;;;0.90;0.70;;;15.90;64.40;;;;;;4993540;28;20447;-67
2023/03/01 01:26:36;;;;;;;0.47;0.47;;;15.90;64.40;;;;;;4992370;28;20037;-67
2023/03/01 01:29:03;;;;;;;0.60;0.60;;;15.90;64.50;;;;;;4992257;28;20022;-67
2023/03/01 01:31:29;;;;;;;0.65;0.65;;;15.90;64.40;;;;;;4992180;28;20032;-67
2023/03/01 01:33:55;;;;;;;0.60;0.60;;;15.90;64.30;;;;;;4992265;28;20109;-67
2023/03/01 01:36:21;;;;;;;1.00;0.75;;;15.90;64.40;;;;;;4992210;28;20109;-67
2023/03/01 01:38:46;;;;;;;1.35;0.73;;;15.90;64.30;;;;;;4992159;28;20396;-67
2023/03/01 01:41:12;;;;;;;0.70;0.70;;;15.90;64.40;;;;;;4992093;28;20129;-67
2023/03/01 01:43:42;;;;;;;0.70;0.70;;;15.90;64.30;;;;;;4991831;28;20049;-67
2023/03/01 01:46:30;;;;;;;0.80;0.70;;;15.90;64.30;;;;;;4992175;28;20027;-67
2023/03/01 01:49:01;;;;;;;0.70;0.70;;;15.90;64.30;;;;;;4991763;28;20019;-67
2023/03/01 01:51:37;;;;;;;0.77;0.77;;;15.90;64.30;;;;;;4992003;28;20481;-67
2023/03/01 01:54:06;;;;;;;1.00;0.93;;;15.90;64.30;;;;;;4992026;28;20097;-67
2023/03/01 01:56:31;;;;;;;0.70;0.70;;;15.90;64.30;;;;;;4991708;28;20029;-67
2023/03/01 01:58:57;;;;;;;0.85;0.85;;;15.90;64.20;;;;;;4992063;28;20022;-67
2023/03/01 02:01:22;;;;;;;0.85;0.85;;;15.90;64.20;;;;;;4993113;28;20026;-67
2023/03/01 02:03:48;;;;;;;0.88;0.88;;;15.90;64.20;;;;;;4991799;28;20030;-67
2023/03/01 02:06:30;;;;;;;1.20;1.10;;;15.90;64.20;;;;;;4991978;28;20105;-67
2023/03/01 02:08:59;;;;;;;1.10;1.00;;;15.90;64.20;;;;;;4975917;28;20030;-67
2023/03/01 02:11:25;;;;;;;0.90;0.90;;;15.90;64.20;;;;;;4991593;28;20492;-67
2023/03/01 02:13:51;;;;;;;1.00;0.90;;;15.90;64.20;;;;;;4992862;28;20110;-67
2023/03/01 02:16:17;;;;;;;0.80;0.80;;;15.90;64.20;;;;;;4991925;28;20105;-67
2023/03/01 02:18:42;;;;;;;0.95;0.95;;;15.90;64.40;;;;;;4992902;28;20026;-67
2023/03/01 02:21:30;;;;;;;1.67;0.88;;;15.90;64.20;;;;;;4991476;28;20444;-67
2023/03/01 02:23:56;;;;;;;0.77;0.77;;;15.90;64.10;;;;;;4995689;28;20097;-67
2023/03/01 02:26:37;;;;;;;0.98;0.90;;;15.90;64.10;;;;;;4995476;28;20564;-67
2023/03/01 02:29:05;;;;;;;0.82;0.82;;;15.90;64.10;;;;;;4995683;28;20051;-67
2023/03/01 02:31:43;;;;;;;1.00;0.98;;;15.90;64.20;;;;;;4995473;28;20133;-67
2023/03/01 02:34:11;;;;;;;1.13;1.00;;;15.90;64.20;;;;;;4996652;28;20030;-67
2023/03/01 02:36:45;;;;;;;1.17;1.10;;;15.90;64.10;;;;;;4995306;28;20023;-67
2023/03/01 02:39:16;;;;;;;0.90;0.88;;;15.90;64.10;;;;;;4995455;28;20026;-67
2023/03/01 02:41:44;;;;;;;0.90;0.90;;;15.90;64.20;;;;;;4994843;28;20037;-67
2023/03/01 02:44:10;;;;;;;1.00;1.00;;;15.90;64.10;;;;;;4979330;28;20034;-67
2023/03/01 02:46:42;;;;;;;1.05;0.90;;;15.90;64.00;;;;;;4996431;28;20485;-67
2023/03/01 02:49:40;;;;;;;0.98;0.82;;;15.90;64.10;;;;;;4996251;28;20022;-67
2023/03/01 02:52:14;;;;;;;1.13;1.00;;;15.90;64.00;;;;;;5013656;28;20042;-67
2023/03/01 02:54:46;;;;;;;0.90;0.90;;;15.90;64.00;;;;;;5029878;28;20572;-67
2023/03/01 02:57:12;;;;;;;0.93;0.93;;;15.90;64.10;;;;;;5012971;28;20034;-67
2023/03/01 02:59:40;;;;;;;0.95;0.95;;;15.90;64.10;;;;;;5013507;28;20038;-67
2023/03/01 03:02:35;;;;;;;0.90;0.90;;;15.80;64.00;;;;;;5013359;28;20045;-67
2023/03/01 03:05:03;;;;;;;1.45;0.90;;;15.90;64.10;;;;;;5013664;28;20030;-67
2023/03/01 03:07:28;;;;;;;0.90;0.90;;;15.80;64.10;;;;;;5013445;28;20040;-67
2023/03/01 03:09:54;;;;;;;0.90;0.90;;;15.90;64.10;;;;;;5013245;28;20021;-67
2023/03/01 03:12:20;;;;;;;0.90;0.90;;;15.90;64.10;;;;;;5013484;28;20030;-67
2023/03/01 03:14:45;;;;;;;0.95;0.95;;;15.90;64.10;;;;;;5029790;28;20471;-67
2023/03/01 03:17:11;;;;;;;0.90;0.90;;;15.90;64.00;;;;;;5029845;28;20535;-67
2023/03/01 03:19:37;;;;;;;1.10;1.00;;;15.90;64.10;;;;;;5013416;28;20447;-67
2023/03/01 03:22:02;;;;;;;1.15;0.80;;;15.80;64.00;;;;;;5012916;28;20558;-67
2023/03/01 03:24:28;;;;;;;0.90;0.90;;;15.80;64.00;;;;;;5012886;28;20508;-67
2023/03/01 03:26:54;;;;;;;1.75;0.80;;;15.80;64.00;;;;;;5026609;28;20504;-67
2023/03/01 03:29:19;;;;;;;0.73;0.73;;;15.80;64.00;;;;;;4994343;28;20402;-67
2023/03/01 03:31:45;;;;;;;0.80;0.80;;;15.90;64.00;;;;;;4995732;28;20026;-67
2023/03/01 03:34:17;;;;;;;0.70;0.70;;;15.80;63.90;;;;;;4994498;28;20027;-67
2023/03/01 03:36:43;;;;;;;0.80;0.80;;;15.90;64.00;;;;;;4995460;28;20084;-67
2023/03/01 03:39:08;;;;;;;0.73;0.73;;;15.80;63.90;;;;;;4995359;28;20034;-67
2023/03/01 03:41:35;;;;;;;0.90;0.90;;;15.80;63.90;;;;;;4995199;28;20084;-67
2023/03/01 03:44:00;;;;;;;0.80;0.80;;;15.80;64.00;;;;;;4994216;28;20089;-67
2023/03/01 03:46:26;;;;;;;0.77;0.77;;;15.80;63.90;;;;;;4995276;28;20158;-67
2023/03/01 03:48:51;;;;;;;1.02;1.02;;;15.80;63.90;;;;;;4993803;28;20500;-67
2023/03/01 03:51:17;;;;;;;0.93;0.80;;;15.80;63.90;;;;;;4995242;28;20423;-67
2023/03/01 03:53:43;;;;;;;1.02;0.80;;;15.80;63.80;;;;;;4993897;28;20041;-67
2023/03/01 03:56:09;;;;;;;0.90;0.90;;;15.80;63.80;;;;;;4993908;28;20061;-68
2023/03/01 03:58:35;;;;;;;1.00;1.00;;;15.80;63.80;;;;;;4993971;28;20054;-67
2023/03/01 04:01:00;;;;;;;1.10;1.00;;;15.80;63.80;;;;;;4994981;28;20023;-67
2023/03/01 04:03:27;;;;;;;0.75;0.75;;;15.80;63.70;;;;;;4995021;28;20026;-67
2023/03/01 04:05:52;;;;;;;1.10;1.00;;;15.80;63.70;;;;;;4993949;28;20018;-67
2023/03/01 04:08:21;;;;;;;0.85;0.85;;;15.80;63.70;;;;;;4993711;28;20019;-67
2023/03/01 04:10:47;;;;;;;0.82;0.82;;;15.80;63.70;;;;;;4993486;28;20034;-67
2023/03/01 04:13:15;;;;;;;1.00;1.00;;;15.80;63.70;;;;;;4994743;28;20057;-67
2023/03/01 04:15:40;;;;;;;1.95;1.13;;;15.80;63.60;;;;;;4993658;28;20408;-67
2023/03/01 04:18:06;;;;;;;1.13;0.70;;;15.80;63.60;;;;;;4993605;28;20022;-67
2023/03/01 04:20:34;;;;;;;1.40;0.77;;;15.80;63.60;;;;;;4993438;28;20030;-67
2023/03/01 04:23:13;;;;;;;0.90;0.88;;;15.80;63.70;;;;;;4992953;28;20537;-67
2023/03/01 04:25:54;;;;;;;1.00;0.90;;;15.80;63.60;;;;;;4993488;28;20026;-67
2023/03/01 04:28:26;;;;;;;0.80;0.80;;;15.80;63.60;;;;;;4994520;28;20540;-67
2023/03/01 04:30:55;;;;;;;0.80;0.80;;;15.80;63.50;;;;;;4993305;28;20049;-67
2023/03/01 04:33:21;;;;;;;1.15;1.00;;;15.80;63.50;;;;;;4994271;28;20030;-67
2023/03/01 04:35:51;;;;;;;0.80;0.80;;;15.80;63.50;;;;;;4993099;28;20031;-67
2023/03/01 04:38:17;;;;;;;0.95;0.93;;;15.80;63.40;;;;;;4993247;28;20026;-67
2023/03/01 04:40:43;;;;;;;1.15;1.15;;;15.80;63.50;;;;;;4992784;28;20128;-67
2023/03/01 04:43:09;;;;;;;1.25;0.90;;;15.80;63.50;;;;;;4994326;28;20054;-67
2023/03/01 04:45:35;;;;;;;0.77;0.77;;;15.80;63.40;;;;;;4992639;28;20034;-67
2023/03/01 04:48:00;;;;;;;1.23;1.13;;;15.80;63.40;;;;;;4992748;28;20064;-67
2023/03/01 04:50:26;;;;;;;0.90;0.90;;;15.70;63.30;;;;;;4992673;28;20023;-67
2023/03/01 04:52:52;;;;;;;0.82;0.82;;;15.80;63.40;;;;;;4994034;28;20027;-67
2023/03/01 04:55:17;;;;;;;1.10;1.02;;;15.70;63.30;;;;;;4992953;28;20031;-67
2023/03/01 04:57:43;;;;;;;0.90;0.90;;;15.70;63.30;;;;;;4992884;28;20014;-67
2023/03/01 05:00:19;;;;;;;1.15;0.88;;;15.80;63.30;;;;;;4992777;28;20034;-68
2023/03/01 05:02:55;;;;;;;0.90;0.90;;;15.80;63.30;;;;;;4992586;28;20022;-67
2023/03/01 05:05:26;;;;;;;1.00;0.90;;;15.70;63.30;;;;;;4992613;28;20080;-67
2023/03/01 05:07:56;;;;;;;1.02;0.95;;;15.80;63.30;;;;;;4992669;28;20022;-67
2023/03/01 05:10:21;;;;;;;0.88;0.88;;;15.70;63.20;;;;;;4992700;28;20061;-67
2023/03/01 05:12:47;;;;;;;1.25;0.90;;;15.70;63.20;;;;;;4992450;28;20049;-67
2023/03/01 05:15:14;;;;;;;1.20;1.10;;;15.70;63.20;;;;;;4993663;28;20027;-67
2023/03/01 05:17:39;;;;;;;1.45;0.90;;;15.70;63.10;;;;;;4993896;28;20023;-67
2023/03/01 05:20:08;;;;;;;0.85;0.85;;;15.70;64.20;;;;;;4993224;28;20050;-67
2023/03/01 05:22:35;;;;;;;0.80;0.80;;;15.70;63.20;;;;;;4993407;28;20042;-67
2023/03/01 05:25:01;;;;;;;0.85;0.85;;;15.70;63.20;;;;;;4993509;28;20023;-67
2023/03/01 05:27:26;;;;;;;0.90;0.90;;;15.70;63.20;;;;;;4992460;28;20481;-67
2023/03/01 05:29:52;;;;;;;1.98;0.90;;;15.70;63.20;;;;;;4992366;28;20069;-67
2023/03/01 05:32:17;;;;;;;1.20;1.10;;;15.70;63.10;;;;;;4993499;28;20030;-67
2023/03/01 05:34:46;;;;;;;0.90;0.82;;;15.70;63.10;;;;;;4993143;28;20041;-67
2023/03/01 05:37:12;;;;;;;1.00;1.00;;;15.70;63.10;;;;;;4992219;28;20033;-67
2023/03/01 05:39:37;;;;;;;0.80;0.80;;;15.70;63.10;;;;;;4992111;28;20101;-67
2023/03/01 05:42:03;;;;;;;0.88;0.88;;;15.70;63.10;;;;;;4992916;28;20041;-67
2023/03/01 05:44:29;;;;;;;0.90;0.90;;;15.70;63.10;;;;;;4992183;28;20026;-67
2023/03/01 05:46:55;;;;;;;0.88;0.70;;;15.70;63.10;;;;;;4992012;28;20018;-67
2023/03/01 05:49:23;;;;;;;1.02;1.00;;;15.70;63.10;;;;;;4992819;28;20481;-67
2023/03/01 05:51:50;;;;;;;0.90;0.90;;;15.70;63.00;;;;;;4992032;28;20134;-67
2023/03/01 05:54:16;;;;;;;0.70;0.70;;;15.60;63.00;;;;;;4991971;28;20455;-67
2023/03/01 05:56:42;;;;;;;0.85;0.85;;;15.70;63.00;;;;;;4992696;28;20109;-67
2023/03/01 05:59:08;;;;;;;0.95;0.93;;;15.60;62.90;;;;;;4992047;28;20166;-67
2023/03/01 06:01:34;;;;;;;0.73;0.73;;;15.60;63.00;;;;;;4993115;28;20030;-67
2023/03/01 06:03:59;;;;;;;0.77;0.77;;;15.70;63.00;;;;;;4991671;28;20026;-67
2023/03/01 06:06:25;;;;;;;1.90;1.05;;;15.60;62.90;;;;;;4993277;28;20026;-67
2023/03/01 06:08:51;;;;;;;0.90;0.90;;;15.70;63.00;;;;;;4991808;28;20031;-67
2023/03/01 06:11:17;;;;;;;0.80;0.80;;;15.70;62.90;;;;;;4991749;28;20028;-67
2023/03/01 06:13:43;;;;;;;0.90;0.90;;;15.60;63.00;;;;;;4993022;28;20109;-67
2023/03/01 06:16:09;;;;;;;0.80;0.80;;;15.70;62.90;;;;;;4991621;28;20026;-67
2023/03/01 06:18:35;;;;;;;0.82;0.82;;;15.70;62.90;;;;;;4991650;28;20037;-67
2023/03/01 06:21:01;;;;;;;1.10;0.82;;;15.70;62.90;;;;;;4992641;28;20029;-67
2023/03/01 06:23:27;;;;;;;1.02;0.70;;;15.60;62.80;;;;;;4991903;28;20035;-67
2023/03/01 06:25:52;;;;;;;0.80;0.80;;;15.70;62.90;;;;;;4992763;28;20052;-67
2023/03/01 06:28:18;;;;;;;0.95;0.90;;;15.60;62.80;;;;;;4991654;28;20037;-67
2023/03/01 06:30:44;;;;;;;1.15;0.85;;;15.60;62.90;;;;;;4991654;28;20135;-67
2023/03/01 06:33:09;;;;;;;0.82;0.82;;;15.60;62.80;;;;;;4991521;28;20084;-67
2023/03/01 06:35:35;;;;;;;0.70;0.70;;;15.60;62.70;;;;;;4991597;28;20015;-67
2023/03/01 06:38:01;;;;;;;0.80;0.80;;;15.60;62.80;;;;;;4991366;28;20030;-67
2023/03/01 06:40:27;;;;;;;1.20;0.63;;;15.60;62.70;;;;;;4991489;28;20084;-67
2023/03/01 06:42:53;;;;;;;1.00;1.00;;;15.60;62.80;;;;;;4991546;28;20037;-67
2023/03/01 06:45:20;;;;;;;0.95;0.90;;;15.60;62.70;;;;;;4992732;28;20026;-67
2023/03/01 06:47:45;;;;;;;1.00;1.00;;;15.60;62.70;;;;;;4991161;28;20026;-67
2023/03/01 06:50:11;;;;;;;1.20;0.90;;;15.60;62.80;;;;;;4991450;28;20118;-67
2023/03/01 06:52:37;;;;;;;0.70;0.70;;;15.60;62.70;;;;;;4992924;28;20149;-67
2023/03/01 06:55:03;;;;;;;0.98;0.98;;;15.60;62.70;;;;;;4992637;28;20069;-67
2023/03/01 06:57:28;;;;;;;0.73;0.70;;;15.60;62.60;;;;;;4991308;28;20026;-67
2023/03/01 06:59:54;;;;;;;0.80;0.80;;;15.60;62.70;;;;;;4992440;28;20033;-67
2023/03/01 07:02:20;;;;;;;1.08;0.80;;;15.60;62.70;;;;;;4991327;28;20034;-67
2023/03/01 07:04:45;;;;;;;1.85;1.23;;;15.60;62.70;;;;;;4991323;28;20480;-67
2023/03/01 07:07:11;;;;;;;0.70;0.70;;;15.60;62.60;;;;;;4975205;28;20405;-67
2023/03/01 07:09:37;;;;;;;0.85;0.85;;;15.60;62.60;;;;;;4993547;28;20026;-67
2023/03/01 07:12:03;;;;;;;1.25;0.82;;;15.60;62.60;;;;;;4994668;28;20022;-67
2023/03/01 07:14:28;;;;;;;1.00;0.80;;;15.60;62.60;;;;;;4994935;28;20026;-67
2023/03/01 07:16:54;;;;;;;1.33;0.90;;;15.60;62.70;;;;;;4994353;28;20031;-67
2023/03/01 07:19:20;;;;;;;0.82;0.80;;;15.60;62.60;;;;;;4994799;28;20034;-67
2023/03/01 07:21:46;;;;;;;1.10;1.00;;;15.60;62.60;;;;;;4994409;28;20125;-67
2023/03/01 07:24:11;;;;;;;1.73;0.90;;;15.60;62.50;;;;;;4995732;28;20113;-66
2023/03/01 07:26:37;;;;;;;1.05;0.80;;;15.60;62.50;;;;;;4995762;28;20057;-67
2023/03/01 07:29:03;;;;;;;0.95;0.90;;;15.50;62.60;;;;;;4994582;28;20026;-67
2023/03/01 07:31:29;;;;;;;0.90;0.90;;;15.60;62.60;;;;;;4995288;28;20023;-67
2023/03/01 07:33:55;;;;;;;1.23;1.10;;;15.60;62.50;;;;;;4995470;28;20027;-67
2023/03/01 07:36:20;;;;;;;1.00;1.00;;;15.60;62.60;;;;;;4994462;28;20055;-67
2023/03/01 07:38:46;;;;;;;0.85;0.85;;;15.50;62.50;;;;;;4995494;28;20030;-67
2023/03/01 07:41:12;;;;;;;0.90;0.90;;;15.50;62.50;;;;;;4993943;28;20114;-67
2023/03/01 07:43:37;;;;;;;0.90;0.90;;;15.50;62.50;;;;;;4994282;28;20062;-67
2023/03/01 07:46:03;;;;;;;1.00;0.90;;;15.50;62.50;;;;;;4993788;28;20022;-67
2023/03/01 07:48:29;;;;;;;0.85;0.85;;;15.50;62.40;;;;;;4995409;28;20069;-67
2023/03/01 07:50:58;;;;;;;1.10;1.00;;;15.50;62.40;;;;;;4994136;28;20461;-67
2023/03/01 07:53:24;;;;;;;0.95;0.95;;;15.50;62.40;;;;;;4995229;28;20037;-67
2023/03/01 07:55:49;;;;;;;1.15;1.05;;;15.50;62.40;;;;;;4995427;28;20030;-67
2023/03/01 07:58:15;;;;;;;1.10;1.00;;;15.50;62.40;;;;;;4993783;28;20112;-67
2023/03/01 08:00:41;;;;;;;0.82;0.82;;;15.50;62.40;;;;;;4994705;28;20139;-67
2023/03/01 08:03:06;;;;;;;1.00;1.00;;;15.50;62.40;;;;;;4994991;28;20069;-67
2023/03/01 08:05:32;;;;;;;0.88;0.88;;;15.50;62.50;;;;;;4993694;28;20054;-67
2023/03/01 08:07:57;;;;;;;1.00;0.90;;;15.50;62.40;;;;;;4994855;28;20099;-67
2023/03/01 08:10:23;;;;;;;0.80;0.80;;;15.50;62.40;;;;;;4994942;28;20034;-67
2023/03/01 08:12:51;;;;;;;0.85;0.85;;;15.50;62.40;;;;;;4994893;28;20050;-67
2023/03/01 08:15:18;;;;;;;0.73;0.73;;;15.50;62.50;;;;;;4993289;28;20022;-67
2023/03/01 08:17:44;;;;;;;1.08;1.00;;;15.50;62.50;;;;;;4993571;28;20459;-67
2023/03/01 08:20:12;;;;;;;0.80;0.80;;;15.50;62.50;;;;;;4994058;28;20497;-67
2023/03/01 08:22:37;;;;;;;1.20;1.10;;;15.50;62.50;;;;;;4994408;28;20050;-67
2023/03/01 08:25:03;;;;;;;1.45;1.02;;;15.50;62.50;;;;;;4994590;28;20100;-67
2023/03/01 08:27:29;;;;;;;1.25;1.17;;;15.50;62.50;;;;;;4993312;28;20097;-67
2023/03/01 08:29:55;;;;;;;1.00;1.00;;;15.50;62.50;;;;;;4994203;28;20416;-67
2023/03/01 08:32:20;;;;;;;0.93;0.88;;;15.50;62.50;;;;;;4993400;28;20396;-67
2023/03/01 08:34:47;;;;;;;1.00;0.90;;;15.50;62.50;;;;;;4993297;28;20034;-67
2023/03/01 08:37:13;;;;;;;1.55;0.85;;;15.50;62.50;;;;;;4993176;28;20037;-67
2023/03/01 08:39:38;;;;;;;1.17;1.00;;;15.50;62.50;;;;;;4994522;28;20109;-67
2023/03/01 08:42:04;;;;;;;1.20;1.10;;;15.50;62.50;;;;;;4993853;28;20045;-67
2023/03/01 08:44:30;;;;;;;1.20;1.10;;;15.50;62.50;;;;;;4994128;28;20110;-67
2023/03/01 08:46:55;;;;;;;1.00;1.00;;;15.50;62.50;;;;;;4992980;28;20080;-67
2023/03/01 08:49:21;;;;;;;1.00;1.00;;;15.50;62.50;;;;;;4992958;28;20026;-67
2023/03/01 08:51:47;;;;;;;1.00;1.00;;;15.50;62.60;;;;;;4994115;28;20030;-67
2023/03/01 08:54:14;;;;;;;0.98;0.93;;;15.50;62.50;;;;;;4994035;28;20037;-67
2023/03/01 08:56:40;;;;;;;1.02;1.00;;;15.50;62.50;;;;;;4992904;28;20030;-67
2023/03/01 08:59:06;;;;;;;1.13;1.10;;;15.50;62.50;;;;;;4993024;28;20037;-67
2023/03/01 09:01:31;;;;;;;1.20;1.10;;;15.50;62.60;;;;;;4992661;28;20027;-67
2023/03/01 09:03:57;;;;;;;1.13;1.02;;;15.50;62.50;;;;;;4993881;28;20057;-67
2023/03/01 09:06:23;;;;;;;1.65;1.10;;;15.50;62.50;;;;;;4993952;28;20050;-67
2023/03/01 09:08:49;;;;;;;1.00;1.00;;;15.50;62.50;;;;;;4992708;28;20102;-67
2023/03/01 09:11:17;;;;;;;1.27;1.17;;;15.50;62.50;;;;;;4992400;28;20030;-67
2023/03/01 09:13:43;;;;;;;1.10;1.00;;;15.50;62.60;;;;;;4992685;28;20018;-67
2023/03/01 09:16:10;;;;;;;1.38;1.17;;;15.50;62.50;;;;;;4993563;28;20056;-67
2023/03/01 09:18:36;;;;;;;1.08;1.08;;;15.50;62.60;;;;;;4992517;28;20504;-67
2023/03/01 09:21:09;;;;;;;1.60;1.05;;;15.50;62.60;;;;;;4993391;28;20026;-67
2023/03/01 09:23:42;;;;;;;1.00;1.00;;;15.50;62.60;;;;;;4993410;28;20037;-67
2023/03/01 09:26:09;;;;;;;0.90;0.90;;;15.50;62.60;;;;;;4992215;28;20076;-67
2023/03/01 09:28:38;;;;;;;1.20;1.10;;;15.50;62.60;;;;;;4992304;28;20018;-67
2023/03/01 09:31:04;;;;;;;1.00;1.00;;;15.50;62.60;;;;;;4992979;28;20033;-67
2023/03/01 09:33:31;;;;;;;1.48;1.05;;;15.50;62.70;;;;;;4992190;28;20031;-67
2023/03/01 09:36:01;;;;;;;1.13;0.90;;;15.50;62.70;;;;;;4992272;28;20080;-67
2023/03/01 09:38:27;;;;;;;1.25;1.15;;;15.50;62.70;;;;;;4993406;28;20477;-67
2023/03/01 09:40:53;;;;;;;1.55;1.45;;;15.50;62.70;;;;;;4991660;28;20038;-67
2023/03/01 09:43:39;;;;;;;1.30;1.17;;;15.50;62.90;;;;;;4992232;28;20158;-67
2023/03/01 09:46:07;;;;;;;1.15;1.00;;;15.50;62.70;;;;;;4992412;28;20461;-67
2023/03/01 09:48:50;;;;;;;1.00;1.00;;;15.50;62.70;;;;;;4991849;28;20501;-68
2023/03/01 09:51:26;;;;;;;1.15;1.05;;;15.50;62.70;;;;;;4992090;28;20034;-67
2023/03/01 09:53:54;;;;;;;1.17;1.10;;;15.50;62.80;;;;;;4992189;28;20026;-67
2023/03/01 09:56:22;;;;;;;0.90;0.90;;;15.50;62.80;;;;;;4991672;28;20073;-68
2023/03/01 09:58:58;;;;;;;1.27;1.08;;;15.50;62.80;;;;;;4991963;28;20142;-67
2023/03/01 10:01:35;;;;;;;1.08;1.05;;;15.50;62.80;;;;;;4991840;28;20057;-67
2023/03/01 10:04:04;;;;;;;1.00;1.00;;;15.50;62.80;;;;;;4992098;28;20105;-67
2023/03/01 10:06:30;;;;;;;1.10;1.00;;;15.50;62.80;;;;;;4992073;28;20469;-67
2023/03/01 10:09:16;;;;;;;0.90;0.90;;;15.50;62.80;;;;;;4993152;28;20057;-67
2023/03/01 10:11:44;;;;;;;1.20;1.10;;;15.50;62.90;;;;;;4991958;28;20081;-67
2023/03/01 10:14:28;;;;;;;0.90;0.90;;;15.50;62.80;;;;;;4991779;28;20022;-67
2023/03/01 10:17:02;;;;;;;0.95;0.95;;;15.50;62.90;;;;;;4992883;28;20030;-67
2023/03/01 10:19:48;;;;;;;1.02;0.93;;;15.50;63.00;;;;;;4991857;28;20556;-67
2023/03/01 10:22:21;;;;;;;1.80;1.20;;;15.50;62.90;;;;;;4992275;28;20050;-67
2023/03/01 10:24:47;;;;;;;;;;;15.50;63.00;;;;;;4991865;28;20022;-67
2023/03/01 10:27:25;;;;;;;1.20;1.08;;;15.50;63.00;;;;;;4992965;28;19958;-67
2023/03/01 10:30:11;;;;;;;1.20;1.10;;;15.50;63.00;;;;;;4991953;28;20110;-67
2023/03/01 10:32:37;;;;;;;0.90;0.90;;;15.50;63.00;;;;;;4991574;28;20049;-67
2023/03/01 10:35:16;;;;;;;0.90;0.90;;;15.50;63.00;;;;;;4992950;28;20390;-67
2023/03/01 10:37:57;;;;;;;1.10;1.00;;;15.50;63.10;;;;;;4991653;28;20029;-67
2023/03/01 10:40:23;;;;;;;1.75;1.20;;;15.50;63.10;;;;;;4992476;28;20022;-67
2023/03/01 10:42:49;;;;;;;1.25;1.15;;;15.50;63.00;;;;;;4992264;28;20480;-67
2023/03/01 10:45:29;;;;;;;0.90;0.90;;;15.50;63.00;;;;;;4996465;28;20033;-67
2023/03/01 10:48:19;;;;;;;1.08;1.02;;;15.50;63.00;;;;;;4996308;28;20024;-67
2023/03/01 10:50:46;;;;;;;0.90;0.90;;;15.50;63.10;;;;;;4995262;28;20053;-67
2023/03/01 10:53:38;;;;;;;1.30;1.20;;;15.60;63.10;;;;;;4994949;28;20023;-67
2023/03/01 10:56:16;;;;;;;1.00;1.00;;;15.60;63.20;;;;;;4996271;28;20065;-67
2023/03/01 10:59:00;;;;;;;0.98;0.98;;;15.50;63.10;;;;;;4994995;28;20076;-67
2023/03/01 11:01:34;;;;;;;1.10;1.00;;;15.60;63.10;;;;;;4995000;28;20487;-67
2023/03/01 11:04:18;;;;;;;0.85;0.85;;;15.50;63.10;;;;;;4995059;28;20481;-67
2023/03/01 11:06:43;;;;;;;1.13;1.13;;;15.60;64.20;;;;;;4996070;28;20057;-67
2023/03/01 11:09:17;;;;;;;1.30;1.20;;;15.60;63.20;;;;;;4994754;28;20485;-67
2023/03/01 11:11:43;;;;;;;1.05;1.05;;;15.60;63.20;;;;;;4995061;28;20037;-67
2023/03/01 11:14:20;;;;;;;1.48;1.20;;;15.60;63.20;;;;;;4995794;28;20027;-67
2023/03/01 11:16:47;;;;;;;0.90;0.90;;;15.60;63.20;;;;;;4994644;28;20022;-67
2023/03/01 11:19:14;;;;;;;0.82;0.82;;;15.60;63.20;;;;;;4990848;28;20019;-67
2023/03/01 11:21:56;;;;;;;1.20;1.10;;;15.60;63.20;;;;;;4986832;28;20047;-67
2023/03/01 11:24:30;;;;;;;1.48;1.27;;;15.60;63.30;;;;;;4981255;28;20074;-67
2023/03/01 11:26:56;;;;;;;1.23;1.08;;;15.60;63.30;;;;;;4959393;28;20030;-67
2023/03/01 11:29:36;;;;;;;1.02;0.93;;;15.60;63.30;;;;;;4993988;28;20027;-67
2023/03/01 11:32:04;;;;;;;1.30;1.20;;;15.60;63.30;;;;;;4994436;28;20031;-67
2023/03/01 11:34:43;;;;;;;0.93;0.93;;;15.60;63.30;;;;;;4994234;28;20114;-67
2023/03/01 11:37:28;;;;;;;1.00;1.00;;;15.60;63.30;;;;;;4981135;28;20405;-67
2023/03/01 11:40:04;;;;;;;1.23;1.10;;;15.60;63.30;;;;;;4974702;28;20035;-67
2023/03/01 11:42:44;;;;;;;1.05;1.05;;;15.60;63.30;;;;;;4960022;28;20027;-67
2023/03/01 11:45:11;;;;;;;0.95;0.90;;;15.60;63.30;;;;;;4959617;28;20041;-67
2023/03/01 11:48:04;;;;;;;1.20;1.10;;;15.60;63.40;;;;;;4958710;28;20045;-67
2023/03/01 11:50:47;;;;;;;0.90;0.90;;;15.60;63.40;;;;;;4974803;28;20466;-67
2023/03/01 11:53:34;;;;;;;0.90;0.90;;;15.60;63.40;;;;;;4979562;28;20015;-67
2023/03/01 11:56:09;;;;;;;1.27;1.20;;;15.60;63.40;;;;;;4993086;28;20022;-67
2023/03/01 11:58:53;;;;;;;0.77;0.77;;;15.60;63.30;;;;;;4995276;28;20481;-67
2023/03/01 12:01:27;;;;;;;1.08;0.98;;;15.60;63.30;;;;;;4994911;28;20052;-67
2023/03/01 12:04:06;;;;;;;0.93;0.93;;;15.60;63.40;;;;;;4995010;28;20481;-67
2023/03/01 12:07:00;;;;;;;1.20;1.10;;;15.60;63.40;;;;;;4993583;28;20489;-67
2023/03/01 12:09:40;;;;;;;0.85;0.85;;;15.60;63.40;;;;;;4994689;28;20592;-67
2023/03/01 12:12:30;;;;;;;1.08;0.98;;;15.60;63.40;;;;;;4993860;28;20058;-67
2023/03/01 12:14:58;;;;;;;1.10;1.00;;;15.60;63.40;;;;;;4993674;28;20089;-67
2023/03/01 12:17:55;;;;;;;1.00;1.00;;;15.60;63.40;;;;;;4994666;28;20058;-67
2023/03/01 12:20:48;;;;;;;1.05;1.05;;;15.60;63.40;;;;;;4994271;28;20037;-67
2023/03/01 12:23:39;;;;;;;1.52;1.17;;;15.70;63.50;;;;;;4962315;28;20050;-67
2023/03/01 12:26:26;;;;;;;1.00;1.00;;;15.60;63.40;;;;;;4996108;28;20121;-67
2023/03/01 12:29:14;;;;;;;1.00;0.90;;;15.60;63.40;;;;;;4993155;28;20076;-67
2023/03/01 12:32:07;;;;;;;0.80;0.80;;;15.70;63.50;;;;;;4993600;28;20022;-67
2023/03/01 12:34:40;;;;;;;1.00;1.00;;;15.70;63.40;;;;;;4994226;28;20030;-67
2023/03/01 12:37:22;;;;;;;0.90;0.90;;;15.70;63.40;;;;;;4994561;28;20440;-67
2023/03/01 12:40:49;;;;;;;1.02;1.00;;;15.70;63.40;;;;;;4993182;28;20042;-67
2023/03/01 12:43:30;;;;;;;0.95;0.90;;;15.70;63.40;;;;;;4982330;28;20042;-67
2023/03/01 12:46:14;;;;;;;0.90;0.90;;;15.60;63.40;;;;;;4993095;28;20055;-67
2023/03/01 12:48:48;;;;;;;0.90;0.90;;;15.70;63.40;;;;;;4994250;28;20026;-67
2023/03/01 12:51:23;;;;;;;1.27;1.10;;;15.70;63.50;;;;;;4992699;28;20026;-67
2023/03/01 12:53:50;;;;;;;1.15;1.05;;;15.70;63.50;;;;;;4993182;28;20504;-67
2023/03/01 12:56:18;;;;;;;1.38;1.00;;;15.70;63.50;;;;;;4992786;28;20022;-67
2023/03/01 12:59:09;;;;;;;0.95;0.90;;;15.70;63.40;;;;;;4992837;28;20034;-67
2023/03/01 13:01:40;;;;;;;0.80;0.80;;;15.70;63.50;;;;;;4992680;28;20026;-66